Time;durP1;ratioP1;P1;durP2;ratioP2;P2;SDS_P1;SDS_P2;PMS_P1;PMS_P2;Temp;Humidity;BMP_temperature;BMP_pressure;BME280_temperature;BME280_humidity;BME280_pressure;Samples;Min_cycle;Max_cycle;Signal;HPM_P1;HPM_P2
2021/03/17 00:02:33;;;;;;;6.30;4.50;;;;;;;;;;10336948;28;24506;-75
2021/03/17 00:07:35;;;;;;;6.07;4.07;;;;;;;;;;10326927;28;20816;-75
2021/03/17 00:12:37;;;;;;;5.93;4.50;;;;;;;;;;10336971;28;20205;-75
2021/03/17 00:17:40;;;;;;;7.20;3.80;;;;;;;;;;10333574;28;20220;-74
2021/03/17 00:22:42;;;;;;;6.83;4.57;;;;;;;;;;10328843;28;20212;-77
2021/03/17 00:27:44;;;;;;;5.93;3.70;;;;;;;;;;10334134;28;20244;-75
2021/03/17 00:32:47;;;;;;;6.57;3.33;;;;;;;;;;10331844;28;20219;-74
2021/03/17 00:37:49;;;;;;;3.60;2.70;;;;;;;;;;10336598;28;20267;-76
2021/03/17 00:42:51;;;;;;;2.97;2.27;;;;;;;;;;10322897;28;20610;-75
2021/03/17 00:47:54;;;;;;;5.87;2.90;;;;;;;;;;10334238;28;20244;-75
2021/03/17 00:52:56;;;;;;;3.60;2.00;;;;;;;;;;10341208;28;20227;-75
2021/03/17 00:57:58;;;;;;;3.00;1.70;;;;;;;;;;10344602;28;20223;-75
2021/03/17 01:03:00;;;;;;;4.27;2.13;;;;;;;;;;10341215;28;20233;-75
2021/03/17 01:08:03;;;;;;;4.87;2.40;;;;;;;;;;10341650;28;20259;-75
2021/03/17 01:13:05;;;;;;;3.03;1.63;;;;;;;;;;10342757;28;20584;-75
2021/03/17 01:18:08;;;;;;;1.97;1.57;;;;;;;;;;10345499;28;20220;-75
2021/03/17 01:23:10;;;;;;;3.23;1.73;;;;;;;;;;10337975;28;20220;-75
2021/03/17 01:28:12;;;;;;;5.83;2.33;;;;;;;;;;10343368;28;20739;-75
2021/03/17 01:33:15;;;;;;;4.13;2.20;;;;;;;;;;10339888;28;20217;-75
2021/03/17 01:38:17;;;;;;;2.73;2.10;;;;;;;;;;10346145;28;20408;-74
2021/03/17 01:43:20;;;;;;;3.03;2.10;;;;;;;;;;10344910;28;20284;-76
2021/03/17 01:48:23;;;;;;;2.60;1.90;;;;;;;;;;10337738;28;20240;-75
2021/03/17 01:53:27;;;;;;;2.10;1.90;;;;;;;;;;10342517;28;20584;-75
2021/03/17 01:58:30;;;;;;;4.13;1.80;;;;;;;;;;10334319;28;20328;-75
2021/03/17 02:03:32;;;;;;;2.67;2.00;;;;;;;;;;10336618;28;20243;-75
2021/03/17 02:08:35;;;;;;;2.33;1.80;;;;;;;;;;10330029;28;20251;-75
2021/03/17 02:13:45;;;;;;;1.80;1.70;;;;;;;;;;10338658;28;20782;-75
2021/03/17 02:18:51;;;;;;;2.00;1.80;;;;;;;;;;10334298;28;20224;-75
2021/03/17 02:24:00;;;;;;;2.00;1.80;;;;;;;;;;10335921;28;20235;-75
2021/03/17 02:29:21;;;;;;;1.80;1.70;;;;;;;;;;10335405;28;20245;-75
2021/03/17 02:34:26;;;;;;;2.53;1.90;;;;;;;;;;10337791;28;20241;-75
2021/03/17 02:39:32;;;;;;;1.90;1.70;;;;;;;;;;10331415;28;20221;-75
2021/03/17 02:44:36;;;;;;;3.20;1.83;;;;;;;;;;10337862;28;20228;-75
2021/03/17 02:49:41;;;;;;;2.20;1.97;;;;;;;;;;10336192;28;20240;-77
2021/03/17 02:54:44;;;;;;;2.53;2.20;;;;;;;;;;10335375;28;20758;-77
2021/03/17 02:59:50;;;;;;;4.37;2.33;;;;;;;;;;10336101;28;20216;-76
2021/03/17 03:04:53;;;;;;;3.07;2.57;;;;;;;;;;10331585;28;20232;-77
2021/03/17 03:09:55;;;;;;;2.83;2.60;;;;;;;;;;10332110;28;20245;-76
2021/03/17 03:15:01;;;;;;;2.90;2.70;;;;;;;;;;10331480;28;20673;-77
2021/03/17 03:20:12;;;;;;;3.27;2.90;;;;;;;;;;10336040;28;20343;-76
2021/03/17 03:25:15;;;;;;;3.63;3.30;;;;;;;;;;10327787;28;20542;-77
2021/03/17 03:30:21;;;;;;;3.10;2.80;;;;;;;;;;10335967;28;20232;-76
2021/03/17 03:35:24;;;;;;;4.37;2.90;;;;;;;;;;10343725;28;20226;-76
2021/03/17 03:40:26;;;;;;;4.40;2.83;;;;;;;;;;10330564;28;20217;-77
2021/03/17 03:45:28;;;;;;;3.97;2.60;;;;;;;;;;10330571;28;20584;-77
2021/03/17 03:50:33;;;;;;;5.63;2.60;;;;;;;;;;10332850;28;20247;-77
2021/03/17 03:55:37;;;;;;;2.77;2.30;;;;;;;;;;10332356;28;20221;-76
2021/03/17 04:00:41;;;;;;;3.90;2.40;;;;;;;;;;10330779;28;20239;-76
2021/03/17 04:05:45;;;;;;;2.63;2.30;;;;;;;;;;10332571;28;20540;-77
2021/03/17 04:10:52;;;;;;;3.13;2.17;;;;;;;;;;10325808;28;20248;-77
2021/03/17 04:15:55;;;;;;;7.90;2.37;;;;;;;;;;10332444;28;20213;-76
2021/03/17 04:21:02;;;;;;;3.60;2.30;;;;;;;;;;10331699;28;20341;-76
2021/03/17 04:26:05;;;;;;;2.90;2.60;;;;;;;;;;10329830;28;20212;-76
2021/03/17 04:31:07;;;;;;;3.43;2.27;;;;;;;;;;10333572;28;20576;-77
2021/03/17 04:36:10;;;;;;;5.17;2.60;;;;;;;;;;10331791;28;20665;-76
2021/03/17 04:41:13;;;;;;;3.23;2.20;;;;;;;;;;10325609;28;20221;-76
2021/03/17 04:46:15;;;;;;;2.80;2.23;;;;;;;;;;10331243;28;20213;-76
2021/03/17 04:51:19;;;;;;;3.33;1.80;;;;;;;;;;10324405;28;20225;-76
2021/03/17 04:56:30;;;;;;;4.40;1.70;;;;;;;;;;10326604;28;20678;-77
2021/03/17 05:01:33;;;;;;;3.50;1.37;;;;;;;;;;10330560;28;20240;-77
2021/03/17 05:06:36;;;;;;;2.53;1.40;;;;;;;;;;10332650;28;20654;-75
2021/03/17 05:11:38;;;;;;;1.93;1.30;;;;;;;;;;10326066;28;21751;-77
2021/03/17 05:16:41;;;;;;;2.73;1.23;;;;;;;;;;10332632;28;20682;-75
2021/03/17 05:21:44;;;;;;;1.80;1.23;;;;;;;;;;10330634;28;20832;-77
2021/03/17 05:26:48;;;;;;;1.73;1.23;;;;;;;;;;10327761;28;20241;-75
2021/03/17 05:31:52;;;;;;;1.30;1.10;;;;;;;;;;10332969;28;20801;-75
2021/03/17 05:36:55;;;;;;;1.23;1.13;;;;;;;;;;10337261;28;20595;-76
2021/03/17 05:41:57;;;;;;;1.97;1.33;;;;;;;;;;10337479;28;20229;-76
2021/03/17 05:46:59;;;;;;;1.40;1.30;;;;;;;;;;10336563;28;20832;-76
2021/03/17 05:52:03;;;;;;;1.60;1.30;;;;;;;;;;10339527;28;20216;-76
2021/03/17 05:57:05;;;;;;;1.40;1.20;;;;;;;;;;10332675;28;20217;-78
2021/03/17 06:02:08;;;;;;;2.13;1.40;;;;;;;;;;10336325;28;20772;-75
2021/03/17 06:07:21;;;;;;;1.60;1.50;;;;;;;;;;10327852;28;20319;-76
2021/03/17 06:12:24;;;;;;;3.17;1.60;;;;;;;;;;10335839;28;20307;-77
2021/03/17 06:17:29;;;;;;;2.63;1.40;;;;;;;;;;10338978;28;20766;-77
2021/03/17 06:22:42;;;;;;;2.33;1.50;;;;;;;;;;10333437;28;20213;-77
2021/03/17 06:27:46;;;;;;;2.60;1.70;;;;;;;;;;10336177;28;20659;-76
2021/03/17 06:32:48;;;;;;;5.17;2.20;;;;;;;;;;10338283;28;20598;-75
2021/03/17 06:37:51;;;;;;;4.67;1.87;;;;;;;;;;10336565;28;20307;-76
2021/03/17 06:42:53;;;;;;;2.73;1.90;;;;;;;;;;10334085;28;20238;-76
2021/03/17 06:47:55;;;;;;;4.27;1.77;;;;;;;;;;10346255;28;21285;-77
2021/03/17 06:52:58;;;;;;;4.50;1.77;;;;;;;;;;10338410;28;20609;-76
2021/03/17 06:58:00;;;;;;;4.60;1.67;;;;;;;;;;10336735;28;20224;-75
2021/03/17 07:03:03;;;;;;;3.40;1.70;;;;;;;;;;10337559;28;20237;-74
2021/03/17 07:08:08;;;;;;;3.30;1.40;;;;;;;;;;10334376;28;20264;-74
2021/03/17 07:13:30;;;;;;;2.47;1.50;;;;;;;;;;10336805;28;20216;-77
2021/03/17 07:18:32;;;;;;;3.13;1.43;;;;;;;;;;10328882;28;20299;-77
2021/03/17 07:23:39;;;;;;;1.83;1.40;;;;;;;;;;10336340;28;20303;-77
2021/03/17 07:28:51;;;;;;;2.83;1.43;;;;;;;;;;10337862;28;20725;-77
2021/03/17 07:33:53;;;;;;;3.00;1.70;;;;;;;;;;10335234;28;20224;-77
2021/03/17 07:38:59;;;;;;;3.53;1.90;;;;;;;;;;10332287;28;20765;-77
2021/03/17 07:44:11;;;;;;;4.20;2.00;;;;;;;;;;10334881;28;20221;-77
2021/03/17 07:49:13;;;;;;;3.33;1.50;;;;;;;;;;10341103;28;21011;-77
2021/03/17 07:54:20;;;;;;;2.93;1.30;;;;;;;;;;10333030;28;20308;-77
2021/03/17 07:59:23;;;;;;;2.97;1.40;;;;;;;;;;10334391;28;20567;-77
2021/03/17 08:04:25;;;;;;;3.07;1.50;;;;;;;;;;10330088;28;20237;-76
2021/03/17 08:09:29;;;;;;;3.77;1.40;;;;;;;;;;10332887;28;20240;-76
2021/03/17 08:14:31;;;;;;;2.03;1.30;;;;;;;;;;10332213;28;20603;-76
2021/03/17 08:19:33;;;;;;;3.00;1.30;;;;;;;;;;10335357;28;20217;-75
2021/03/17 08:30:08;;;;;;;3.03;1.10;;;;;;;;;;10336810;28;20251;-75
2021/03/17 08:35:21;;;;;;;3.83;1.50;;;;;;;;;;10336918;28;20228;-76
2021/03/17 08:40:38;;;;;;;6.17;1.40;;;;;;;;;;10328043;28;20213;-75
2021/03/17 08:45:43;;;;;;;2.23;1.53;;;;;;;;;;10331179;28;20220;-75
2021/03/17 08:50:48;;;;;;;4.47;1.60;;;;;;;;;;10334406;28;20247;-75
2021/03/17 08:55:50;;;;;;;2.10;1.20;;;;;;;;;;10334767;28;20221;-75
2021/03/17 09:00:53;;;;;;;4.23;1.47;;;;;;;;;;10342586;28;20228;-76
2021/03/17 09:06:05;;;;;;;2.87;1.27;;;;;;;;;;10324224;28;20256;-76
2021/03/17 09:11:07;;;;;;;3.80;1.43;;;;;;;;;;10339875;28;20232;-76
2021/03/17 09:16:10;;;;;;;6.10;1.80;;;;;;;;;;10338402;28;20213;-76
2021/03/17 09:21:35;;;;;;;3.57;1.60;;;;;;;;;;10340454;28;20422;-76
2021/03/17 09:26:37;;;;;;;4.35;1.80;;;;;;;;;;10338848;28;20217;-76
2021/03/17 09:31:40;;;;;;;5.97;1.60;;;;;;;;;;10338433;28;20253;-76
2021/03/17 09:36:42;;;;;;;7.23;2.03;;;;;;;;;;10342623;28;20312;-76
2021/03/17 09:41:47;;;;;;;7.47;1.70;;;;;;;;;;10335855;28;20220;-76
2021/03/17 09:46:55;;;;;;;6.00;1.80;;;;;;;;;;10343713;28;20319;-76
2021/03/17 09:51:59;;;;;;;8.30;1.97;;;;;;;;;;10341751;28;20614;-76
2021/03/17 09:57:03;;;;;;;6.20;2.07;;;;;;;;;;10344779;28;20654;-76
2021/03/17 10:02:17;;;;;;;4.17;1.80;;;;;;;;;;10338055;28;20288;-76
2021/03/17 10:07:21;;;;;;;4.07;1.50;;;;;;;;;;10334814;28;20240;-75
2021/03/17 10:12:24;;;;;;;8.33;2.20;;;;;;;;;;10334143;28;20213;-75
2021/03/17 10:17:29;;;;;;;3.87;1.67;;;;;;;;;;10336726;28;20674;-76
2021/03/17 10:22:32;;;;;;;4.27;1.40;;;;;;;;;;10327466;28;20791;-76
2021/03/17 10:27:36;;;;;;;4.43;1.80;;;;;;;;;;10338328;28;20239;-76
2021/03/17 10:32:40;;;;;;;4.30;1.77;;;;;;;;;;10341416;28;20217;-75
2021/03/17 10:37:46;;;;;;;5.37;1.80;;;;;;;;;;10333536;28;20597;-76
2021/03/17 10:42:49;;;;;;;4.33;1.50;;;;;;;;;;10339924;28;20216;-75
2021/03/17 10:48:01;;;;;;;4.63;1.50;;;;;;;;;;10336007;28;20240;-75
2021/03/17 10:53:14;;;;;;;3.63;1.33;;;;;;;;;;10336046;28;20236;-76
2021/03/17 10:58:17;;;;;;;5.43;1.50;;;;;;;;;;10339685;28;20225;-76
2021/03/17 11:03:23;;;;;;;6.37;1.70;;;;;;;;;;10339593;28;20249;-76
2021/03/17 11:08:26;;;;;;;3.60;1.53;;;;;;;;;;10336834;28;20374;-76
2021/03/17 11:13:29;;;;;;;6.33;1.57;;;;;;;;;;10336857;28;20217;-76
2021/03/17 11:18:32;;;;;;;8.30;2.63;;;;;;;;;;10329107;28;20221;-76
2021/03/17 11:23:36;;;;;;;10.63;2.17;;;;;;;;;;10344969;28;20231;-76
2021/03/17 11:28:39;;;;;;;6.77;1.97;;;;;;;;;;10336356;28;20319;-76
2021/03/17 11:33:42;;;;;;;6.97;2.00;;;;;;;;;;10336156;28;20216;-76
2021/03/17 11:38:44;;;;;;;5.30;1.70;;;;;;;;;;10333781;28;20221;-76
2021/03/17 11:43:47;;;;;;;4.57;1.77;;;;;;;;;;10337073;28;20221;-76
2021/03/17 11:48:50;;;;;;;7.33;1.80;;;;;;;;;;10333600;28;20243;-76
2021/03/17 11:53:52;;;;;;;4.73;1.80;;;;;;;;;;10335199;28;20646;-76
2021/03/17 11:58:55;;;;;;;4.97;1.60;;;;;;;;;;10343370;28;20217;-75
2021/03/17 12:03:57;;;;;;;3.87;1.80;;;;;;;;;;10337408;28;20328;-76
2021/03/17 12:09:01;;;;;;;4.13;1.63;;;;;;;;;;10344053;28;20714;-75
2021/03/17 12:14:03;;;;;;;4.20;1.60;;;;;;;;;;10333881;28;20802;-75
2021/03/17 12:19:06;;;;;;;5.87;1.40;;;;;;;;;;10342207;28;20225;-75
2021/03/17 12:24:08;;;;;;;4.50;1.40;;;;;;;;;;10334406;28;20228;-75
2021/03/17 12:29:10;;;;;;;5.87;1.60;;;;;;;;;;10338005;28;20244;-77
2021/03/17 12:34:14;;;;;;;3.30;1.70;;;;;;;;;;10329742;28;20213;-75
2021/03/17 12:39:15;;;;;;;6.97;1.80;;;;;;;;;;10329239;28;20217;-75
2021/03/17 12:44:19;;;;;;;6.23;1.77;;;;;;;;;;10334450;28;20221;-75
2021/03/17 12:49:24;;;;;;;5.13;1.70;;;;;;;;;;10329994;28;20626;-76
2021/03/17 12:54:26;;;;;;;5.63;1.50;;;;;;;;;;10334625;28;20612;-75
2021/03/17 12:59:32;;;;;;;3.17;1.40;;;;;;;;;;10328026;28;20227;-74
2021/03/17 13:04:34;;;;;;;2.97;1.37;;;;;;;;;;10333301;28;20327;-77
2021/03/17 13:09:37;;;;;;;4.43;1.50;;;;;;;;;;10328396;28;20237;-76
2021/03/17 13:14:39;;;;;;;4.63;1.43;;;;;;;;;;10334933;28;20213;-76
2021/03/17 13:19:50;;;;;;;7.63;1.67;;;;;;;;;;10335517;28;20909;-77
2021/03/17 13:24:52;;;;;;;6.17;2.20;;;;;;;;;;10333892;28;20678;-76
2021/03/17 13:29:59;;;;;;;5.80;1.77;;;;;;;;;;10333750;28;20244;-77
2021/03/17 13:35:05;;;;;;;7.10;1.80;;;;;;;;;;10331943;28;20227;-76
2021/03/17 13:40:09;;;;;;;6.50;2.13;;;;;;;;;;10331663;28;20595;-76
2021/03/17 13:45:12;;;;;;;4.40;1.80;;;;;;;;;;10333117;28;20375;-76
2021/03/17 13:50:21;;;;;;;4.00;1.50;;;;;;;;;;10333858;28;20248;-76
2021/03/17 13:55:23;;;;;;;4.20;1.50;;;;;;;;;;10335322;28;20214;-76
2021/03/17 14:00:32;;;;;;;6.37;2.40;;;;;;;;;;10344401;28;20363;-76
2021/03/17 14:05:35;;;;;;;2.83;1.33;;;;;;;;;;10334359;28;20339;-76
2021/03/17 14:10:38;;;;;;;6.03;1.50;;;;;;;;;;10336379;28;20882;-76
2021/03/17 14:15:44;;;;;;;8.20;1.63;;;;;;;;;;10336059;28;20217;-76
2021/03/17 14:20:47;;;;;;;3.60;1.23;;;;;;;;;;10339856;28;20316;-76
2021/03/17 14:25:49;;;;;;;7.00;1.57;;;;;;;;;;10332064;28;20228;-76
2021/03/17 14:30:51;;;;;;;6.57;1.30;;;;;;;;;;10346343;28;20244;-77
2021/03/17 14:35:54;;;;;;;5.00;1.50;;;;;;;;;;10334876;28;20221;-76
2021/03/17 14:40:56;;;;;;;6.40;1.47;;;;;;;;;;10335415;28;20212;-76
2021/03/17 14:45:57;;;;;;;3.47;1.30;;;;;;;;;;10340467;28;20209;-76
2021/03/17 14:51:00;;;;;;;6.73;1.53;;;;;;;;;;10342194;28;20610;-78
2021/03/17 14:56:02;;;;;;;6.50;1.87;;;;;;;;;;10340260;28;20306;-76
2021/03/17 15:01:05;;;;;;;6.60;1.60;;;;;;;;;;10337512;28;20362;-76
2021/03/17 15:06:08;;;;;;;6.20;1.70;;;;;;;;;;10335302;28;20229;-77
2021/03/17 15:11:10;;;;;;;7.20;1.60;;;;;;;;;;10334800;28;20267;-77
2021/03/17 15:16:12;;;;;;;5.77;1.80;;;;;;;;;;10339443;28;20263;-76
2021/03/17 15:21:14;;;;;;;4.77;1.67;;;;;;;;;;10334649;28;20216;-76
2021/03/17 15:26:16;;;;;;;6.10;2.07;;;;;;;;;;10336256;28;20213;-77
2021/03/17 15:31:18;;;;;;;6.63;1.60;;;;;;;;;;10334548;28;20781;-76
2021/03/17 15:36:22;;;;;;;4.97;1.50;;;;;;;;;;10339056;28;20213;-76
2021/03/17 15:41:24;;;;;;;4.37;1.30;;;;;;;;;;10331630;28;20238;-77
2021/03/17 15:46:26;;;;;;;5.70;1.70;;;;;;;;;;10336137;28;20678;-76
2021/03/17 15:51:29;;;;;;;3.13;1.43;;;;;;;;;;10329526;28;20245;-76
2021/03/17 15:56:32;;;;;;;6.43;1.50;;;;;;;;;;10335855;28;20213;-77
2021/03/17 16:01:34;;;;;;;4.23;1.40;;;;;;;;;;10333946;28;20780;-77
2021/03/17 16:06:37;;;;;;;5.57;1.53;;;;;;;;;;10331547;28;20303;-76
2021/03/17 16:11:39;;;;;;;4.23;1.40;;;;;;;;;;10334312;28;20238;-77
2021/03/17 16:16:41;;;;;;;8.17;1.60;;;;;;;;;;10337147;28;20699;-76
2021/03/17 16:21:44;;;;;;;4.80;1.37;;;;;;;;;;10335096;28;20215;-76
2021/03/17 16:26:47;;;;;;;7.50;1.30;;;;;;;;;;10330700;28;20958;-75
2021/03/17 16:31:49;;;;;;;3.30;1.47;;;;;;;;;;10338948;28;20245;-76
2021/03/17 16:36:52;;;;;;;10.10;1.70;;;;;;;;;;10332606;28;20304;-76
2021/03/17 16:41:54;;;;;;;6.53;1.83;;;;;;;;;;10333184;28;20208;-76
2021/03/17 16:46:56;;;;;;;4.67;1.60;;;;;;;;;;10330901;28;20209;-76
2021/03/17 16:51:59;;;;;;;5.30;1.60;;;;;;;;;;10331675;28;20243;-76
2021/03/17 16:57:01;;;;;;;4.60;1.50;;;;;;;;;;10327969;28;20243;-76
2021/03/17 17:02:03;;;;;;;4.10;1.30;;;;;;;;;;10336444;28;20243;-76
2021/03/17 17:07:06;;;;;;;3.43;1.30;;;;;;;;;;10329931;28;20311;-76
2021/03/17 17:12:10;;;;;;;4.87;1.10;;;;;;;;;;10342119;28;20241;-76
2021/03/17 17:17:14;;;;;;;3.80;1.27;;;;;;;;;;10341855;28;20661;-76
2021/03/17 17:22:17;;;;;;;2.80;1.30;;;;;;;;;;10328021;28;20221;-76
2021/03/17 17:27:19;;;;;;;1.80;1.20;;;;;;;;;;10334352;28;21405;-76
2021/03/17 17:32:21;;;;;;;3.13;1.20;;;;;;;;;;10338332;28;21012;-75
2021/03/17 17:37:24;;;;;;;4.40;1.30;;;;;;;;;;10338893;28;20354;-76
2021/03/17 17:42:26;;;;;;;3.20;1.20;;;;;;;;;;10338910;28;20225;-75
2021/03/17 17:47:40;;;;;;;3.53;1.37;;;;;;;;;;10326254;28;20227;-78
2021/03/17 17:52:54;;;;;;;4.57;1.20;;;;;;;;;;10327463;28;20309;-79
2021/03/17 17:58:16;;;;;;;3.63;1.20;;;;;;;;;;10317468;28;20228;-78
2021/03/17 18:04:01;;;;;;;;;;;;;;;;;;;;;
2021/03/17 18:26:07;;;;;;;3.30;1.60;;;;;;;;;;3022057;26;20235;-76
2021/03/17 18:31:09;;;;;;;4.33;1.93;;;;;;;;;;10347786;28;20264;-79
2021/03/17 18:36:11;;;;;;;5.97;2.10;;;;;;;;;;10357813;28;20779;-77
2021/03/17 18:41:13;;;;;;;3.23;1.63;;;;;;;;;;10341422;28;20764;-77
2021/03/17 18:46:15;;;;;;;3.80;1.50;;;;;;;;;;10351930;28;21025;-78
2021/03/17 18:51:17;;;;;;;3.60;1.47;;;;;;;;;;10347456;28;20247;-78
2021/03/17 18:56:20;;;;;;;4.90;1.47;;;;;;;;;;10345733;28;20221;-78
2021/03/17 19:01:22;;;;;;;2.57;1.20;;;;;;;;;;10346452;28;20232;-78
2021/03/17 19:06:24;;;;;;;4.23;1.27;;;;;;;;;;10352068;28;20305;-77
2021/03/17 19:11:27;;;;;;;3.50;1.50;;;;;;;;;;10351283;28;20239;-80
2021/03/17 19:16:28;;;;;;;5.43;1.73;;;;;;;;;;10362825;28;20219;-80
2021/03/17 19:21:31;;;;;;;4.07;1.60;;;;;;;;;;10349357;28;20693;-80
2021/03/17 19:26:34;;;;;;;6.57;1.97;;;;;;;;;;10358914;28;20216;-79
2021/03/17 19:31:35;;;;;;;4.60;1.63;;;;;;;;;;10353193;28;20717;-80
2021/03/17 19:36:37;;;;;;;8.60;1.60;;;;;;;;;;10355598;28;20658;-79
2021/03/17 19:41:40;;;;;;;5.77;2.00;;;;;;;;;;10349273;28;20235;-78
2021/03/17 19:46:42;;;;;;;7.90;1.80;;;;;;;;;;10352894;28;20223;-78
2021/03/17 19:51:44;;;;;;;7.33;1.60;;;;;;;;;;10345301;28;20249;-78
2021/03/17 19:56:47;;;;;;;6.13;2.00;;;;;;;;;;10353253;28;20698;-77
2021/03/17 20:01:50;;;;;;;9.53;2.27;;;;;;;;;;10351136;28;20231;-78
2021/03/17 20:06:52;;;;;;;8.23;2.27;;;;;;;;;;10347676;28;20228;-79
2021/03/17 20:11:55;;;;;;;9.20;1.73;;;;;;;;;;10344984;28;20359;-80
2021/03/17 20:16:57;;;;;;;8.83;2.37;;;;;;;;;;10346463;28;20212;-80
2021/03/17 20:21:59;;;;;;;11.87;2.47;;;;;;;;;;10350525;28;20107;-80
2021/03/17 20:27:03;;;;;;;5.60;2.00;;;;;;;;;;10352588;28;20538;-80
2021/03/17 20:32:06;;;;;;;6.13;1.83;;;;;;;;;;10352269;28;20236;-79
2021/03/17 20:37:08;;;;;;;8.53;2.17;;;;;;;;;;10349806;28;20310;-80
2021/03/17 20:42:11;;;;;;;7.17;2.07;;;;;;;;;;10353706;28;20387;-80
2021/03/17 20:47:13;;;;;;;8.13;1.83;;;;;;;;;;10347991;28;20220;-78
2021/03/17 20:52:15;;;;;;;7.07;2.10;;;;;;;;;;10356163;28;20244;-77
2021/03/17 20:57:18;;;;;;;7.70;1.87;;;;;;;;;;10356983;28;20220;-77
2021/03/17 21:02:20;;;;;;;7.47;2.10;;;;;;;;;;10362312;28;20243;-78
2021/03/17 21:07:22;;;;;;;5.40;1.60;;;;;;;;;;10364790;28;21101;-78
2021/03/17 21:12:24;;;;;;;7.87;1.90;;;;;;;;;;10376819;28;20232;-79
2021/03/17 21:17:26;;;;;;;8.90;2.10;;;;;;;;;;10373771;28;20216;-78
2021/03/17 21:22:28;;;;;;;10.47;2.30;;;;;;;;;;10368687;28;20290;-79
2021/03/17 21:27:31;;;;;;;8.70;2.30;;;;;;;;;;10372440;28;20227;-78
2021/03/17 21:32:33;;;;;;;7.97;2.53;;;;;;;;;;10359534;28;20244;-78
2021/03/17 21:37:36;;;;;;;8.60;2.43;;;;;;;;;;10365604;28;20217;-78
2021/03/17 21:42:40;;;;;;;11.17;2.80;;;;;;;;;;10366625;28;20670;-81
2021/03/17 21:47:42;;;;;;;11.30;2.70;;;;;;;;;;10368092;28;20216;-79
2021/03/17 21:52:44;;;;;;;11.57;2.93;;;;;;;;;;10365376;28;20245;-77
2021/03/17 21:57:47;;;;;;;8.17;2.90;;;;;;;;;;10358378;28;20558;-79
2021/03/17 22:02:50;;;;;;;10.63;2.90;;;;;;;;;;10364518;28;20244;-81
2021/03/17 22:07:52;;;;;;;12.90;3.27;;;;;;;;;;10370946;28;20209;-78
2021/03/17 22:12:55;;;;;;;11.67;3.17;;;;;;;;;;10355637;28;20236;-77
2021/03/17 22:17:57;;;;;;;9.43;2.90;;;;;;;;;;10370092;28;20224;-78
2021/03/17 22:22:59;;;;;;;13.33;5.03;;;;;;;;;;10358682;28;20609;-80
2021/03/17 22:28:02;;;;;;;9.77;3.43;;;;;;;;;;10364895;28;20314;-79
2021/03/17 22:33:05;;;;;;;13.80;4.10;;;;;;;;;;10362667;28;20236;-80
2021/03/17 22:38:07;;;;;;;12.10;3.10;;;;;;;;;;10363037;28;20259;-80
2021/03/17 22:43:10;;;;;;;14.60;3.33;;;;;;;;;;10359168;28;20223;-80
2021/03/17 22:48:13;;;;;;;9.10;2.47;;;;;;;;;;10364148;28;20219;-78
2021/03/17 22:53:15;;;;;;;12.00;3.07;;;;;;;;;;10361526;28;20580;-78
2021/03/17 22:58:18;;;;;;;9.80;2.80;;;;;;;;;;10358471;28;20654;-79
2021/03/17 23:03:26;;;;;;;10.00;2.50;;;;;;;;;;10363648;28;20236;-78
2021/03/17 23:08:30;;;;;;;8.73;2.20;;;;;;;;;;10359904;28;20665;-79
2021/03/17 23:13:33;;;;;;;12.20;2.40;;;;;;;;;;10358659;28;20209;-79
2021/03/17 23:18:37;;;;;;;9.27;2.27;;;;;;;;;;10361316;28;20609;-79
2021/03/17 23:23:43;;;;;;;8.40;2.07;;;;;;;;;;10358185;28;20303;-79
2021/03/17 23:28:48;;;;;;;8.80;2.17;;;;;;;;;;10358500;28;20244;-78
2021/03/17 23:33:51;;;;;;;9.63;2.67;;;;;;;;;;10366071;28;20223;-78
2021/03/17 23:38:55;;;;;;;6.20;2.03;;;;;;;;;;10360478;28;20553;-80
2021/03/17 23:43:57;;;;;;;10.37;2.57;;;;;;;;;;10359011;28;20288;-79
2021/03/17 23:48:59;;;;;;;8.87;2.10;;;;;;;;;;10361828;28;20253;-78
2021/03/17 23:54:01;;;;;;;7.87;2.63;;;;;;;;;;10361724;28;20216;-79
2021/03/17 23:59:04;;;;;;;8.23;2.20;;;;;;;;;;10359285;28;20217;-79
